Time;durP1;ratioP1;P1;durP2;ratioP2;P2;SDS_P1;SDS_P2;PMS_P1;PMS_P2;Temp;Humidity;BMP_temperature;BMP_pressure;BME280_temperature;BME280_humidity;BME280_pressure;Samples;Min_cycle;Max_cycle;Signal;HPM_P1;HPM_P2
2023/03/09 00:03:15;;;;;;;23.67;15.07;;;4.20;99.90;;;;;;10367499;28;20244;-85
2023/03/09 00:08:18;;;;;;;33.83;21.23;;;4.60;99.90;;;;;;10367079;28;20240;-85
2023/03/09 00:13:21;;;;;;;29.30;18.37;;;4.00;99.90;;;;;;10367487;28;20244;-85
2023/03/09 00:18:24;;;;;;;28.40;17.43;;;3.90;99.90;;;;;;10367468;28;20283;-85
2023/03/09 00:23:27;;;;;;;27.13;17.73;;;3.90;99.90;;;;;;10367084;28;20314;-85
2023/03/09 00:28:29;;;;;;;28.97;17.97;;;3.60;99.90;;;;;;10366480;28;20310;-85
2023/03/09 00:33:32;;;;;;;20.57;13.77;;;3.80;99.90;;;;;;10366739;28;20256;-86
2023/03/09 00:38:35;;;;;;;24.40;16.30;;;3.50;99.90;;;;;;10348888;28;20228;-85
2023/03/09 00:43:37;;;;;;;28.30;18.03;;;3.50;99.90;;;;;;10349056;28;20221;-85
2023/03/09 00:48:40;;;;;;;23.40;14.17;;;3.70;99.90;;;;;;10348798;28;20380;-85
2023/03/09 00:53:43;;;;;;;19.87;11.97;;;3.60;99.90;;;;;;10368987;28;20270;-85
2023/03/09 00:58:46;;;;;;;28.20;17.07;;;3.60;99.90;;;;;;10356647;28;20267;-85
2023/03/09 01:03:51;;;;;;;23.07;14.50;;;4.10;99.90;;;;;;10355860;28;20274;-85
2023/03/09 01:08:57;;;;;;;26.50;17.23;;;3.80;99.90;;;;;;10356289;28;20212;-85
2023/03/09 01:13:59;;;;;;;31.50;19.27;;;3.30;99.90;;;;;;10373856;28;20258;-85
2023/03/09 01:19:02;;;;;;;39.30;22.63;;;3.70;99.90;;;;;;10373674;28;20274;-85
2023/03/09 01:24:05;;;;;;;24.27;13.87;;;4.50;99.90;;;;;;10373107;28;20240;-85
2023/03/09 01:29:08;;;;;;;36.87;21.70;;;4.90;99.90;;;;;;10372386;28;20260;-85
2023/03/09 01:34:12;;;;;;;22.07;13.90;;;5.30;99.90;;;;;;10354768;28;20314;-85
2023/03/09 01:39:15;;;;;;;24.90;14.63;;;4.70;99.90;;;;;;10372341;28;20237;-85
2023/03/09 01:44:18;;;;;;;25.83;15.20;;;4.90;99.90;;;;;;10338818;28;20245;-85
2023/03/09 01:49:20;;;;;;;34.10;20.07;;;4.80;99.90;;;;;;10372502;28;20326;-85
2023/03/09 01:54:31;;;;;;;28.37;17.07;;;4.40;99.90;;;;;;10355746;28;20212;-85
2023/03/09 01:59:34;;;;;;;32.93;19.23;;;4.20;99.90;;;;;;10354854;28;20659;-85
2023/03/09 02:04:45;;;;;;;21.40;12.87;;;4.70;99.90;;;;;;10354243;28;20304;-86
2023/03/09 02:09:59;;;;;;;38.27;22.87;;;4.90;99.90;;;;;;10354219;28;20298;-85
2023/03/09 02:15:05;;;;;;;42.10;23.53;;;4.60;99.90;;;;;;10353987;28;20290;-85
2023/03/09 02:20:27;;;;;;;26.27;15.17;;;4.70;99.90;;;;;;10353732;28;20220;-85
2023/03/09 02:25:45;;;;;;;33.33;21.73;;;5.30;99.90;;;;;;10312531;28;20661;-85
2023/03/09 02:30:50;;;;;;;39.33;24.53;;;5.40;99.90;;;;;;10312799;28;20328;-85
2023/03/09 02:35:54;;;;;;;19.67;12.20;;;4.80;99.90;;;;;;10311910;28;20951;-85
2023/03/09 02:41:00;;;;;;;23.47;13.83;;;5.20;99.90;;;;;;10317966;28;20630;-85
2023/03/09 02:46:03;;;;;;;36.17;18.50;;;5.40;99.90;;;;;;10352147;28;20267;-85
2023/03/09 02:51:09;;;;;;;23.07;13.73;;;5.20;99.90;;;;;;10352207;28;20342;-85
2023/03/09 02:56:12;;;;;;;36.27;23.10;;;4.90;99.90;;;;;;10351868;28;20239;-85
2023/03/09 03:01:16;;;;;;;24.83;14.83;;;5.20;99.90;;;;;;10352153;28;20294;-84
2023/03/09 03:06:19;;;;;;;22.93;12.73;;;5.00;99.90;;;;;;10369837;28;20251;-85
2023/03/09 03:11:23;;;;;;;16.83;9.37;;;6.50;99.90;;;;;;10351759;28;20322;-85
2023/03/09 03:16:26;;;;;;;43.70;25.57;;;6.30;99.90;;;;;;10351921;28;20745;-85
2023/03/09 03:21:28;;;;;;;10.97;6.73;;;6.90;99.90;;;;;;10351732;28;20306;-85
2023/03/09 03:26:32;;;;;;;17.33;10.83;;;7.30;99.90;;;;;;10350228;28;20212;-85
2023/03/09 03:31:40;;;;;;;29.00;18.10;;;7.20;99.90;;;;;;10334615;28;20327;-85
2023/03/09 03:36:43;;;;;;;17.83;12.13;;;7.90;99.90;;;;;;10368261;28;20295;-85
2023/03/09 03:41:46;;;;;;;20.90;12.87;;;8.00;99.90;;;;;;10349827;28;20248;-85
2023/03/09 03:46:54;;;;;;;26.87;15.67;;;8.30;99.90;;;;;;10349400;28;20552;-86
2023/03/09 03:51:57;;;;;;;25.60;17.10;;;7.50;99.90;;;;;;10349351;28;20259;-85
2023/03/09 03:57:01;;;;;;;11.77;8.60;;;7.20;99.90;;;;;;10349082;28;20233;-85
2023/03/09 04:02:05;;;;;;;17.07;11.20;;;7.10;99.90;;;;;;10333372;28;20294;-85
2023/03/09 04:07:08;;;;;;;20.27;13.43;;;7.60;99.90;;;;;;10349410;28;20280;-85
2023/03/09 04:12:11;;;;;;;12.80;7.87;;;7.90;99.90;;;;;;10349632;28;20273;-85
2023/03/09 04:17:17;;;;;;;16.10;10.53;;;8.30;99.90;;;;;;10349001;28;20206;-85
2023/03/09 04:22:19;;;;;;;13.10;9.33;;;6.90;99.90;;;;;;10348748;28;20243;-85
2023/03/09 04:27:23;;;;;;;24.13;16.17;;;7.20;99.90;;;;;;10347678;28;20261;-85
2023/03/09 04:32:31;;;;;;;13.73;9.23;;;6.70;99.90;;;;;;10348376;28;20963;-85
2023/03/09 04:37:39;;;;;;;11.67;8.43;;;7.90;99.90;;;;;;10348537;28;20228;-85
2023/03/09 04:42:42;;;;;;;13.37;9.07;;;7.50;99.90;;;;;;10366255;28;20244;-85
2023/03/09 04:47:45;;;;;;;21.23;13.70;;;7.80;99.90;;;;;;10348266;28;20617;-85
2023/03/09 04:52:49;;;;;;;14.20;8.60;;;7.50;99.90;;;;;;10348681;28;20797;-85
2023/03/09 04:57:53;;;;;;;11.37;8.50;;;6.80;99.90;;;;;;10348283;28;20212;-85
2023/03/09 05:02:55;;;;;;;16.60;9.57;;;7.30;99.90;;;;;;10346770;28;20242;-85
2023/03/09 05:07:59;;;;;;;8.10;5.90;;;7.90;99.90;;;;;;10347199;28;20325;-85
2023/03/09 05:13:02;;;;;;;15.17;10.33;;;7.40;99.90;;;;;;10348248;28;20268;-85
2023/03/09 05:18:08;;;;;;;10.63;7.67;;;7.00;99.90;;;;;;10348225;28;20242;-85
2023/03/09 05:23:11;;;;;;;13.40;9.93;;;7.70;99.90;;;;;;10348351;28;20253;-85
2023/03/09 05:28:14;;;;;;;17.40;12.33;;;7.50;99.90;;;;;;10332507;28;20237;-85
2023/03/09 05:33:17;;;;;;;18.73;10.60;;;7.50;99.90;;;;;;10347445;28;20261;-86
2023/03/09 05:38:20;;;;;;;12.57;9.67;;;7.40;99.90;;;;;;10332253;28;20294;-86
2023/03/09 05:43:24;;;;;;;15.67;10.20;;;6.80;99.90;;;;;;10355499;28;20304;-85
2023/03/09 05:48:27;;;;;;;11.83;7.27;;;6.70;99.90;;;;;;10354906;28;20279;-85
2023/03/09 05:53:31;;;;;;;11.07;8.10;;;7.40;99.90;;;;;;10355697;28;20323;-85
2023/03/09 05:58:36;;;;;;;12.33;9.70;;;7.50;99.90;;;;;;10355049;28;20273;-86
2023/03/09 06:03:39;;;;;;;10.00;7.57;;;7.10;99.90;;;;;;10353410;28;20249;-85
2023/03/09 06:08:42;;;;;;;17.33;9.33;;;7.30;99.90;;;;;;10354570;28;20244;-85
2023/03/09 06:13:53;;;;;;;9.13;5.57;;;7.30;99.90;;;;;;10355943;28;20294;-85
2023/03/09 06:18:58;;;;;;;15.47;10.93;;;8.10;99.90;;;;;;10354373;28;20283;-85
2023/03/09 06:24:01;;;;;;;10.60;7.03;;;8.00;99.90;;;;;;10354005;28;20242;-85
2023/03/09 06:29:04;;;;;;;9.10;5.80;;;7.80;99.90;;;;;;10371946;28;20237;-85
2023/03/09 06:34:08;;;;;;;10.77;6.87;;;8.00;99.90;;;;;;10353208;28;20648;-85
2023/03/09 06:39:12;;;;;;;10.00;6.77;;;8.50;99.20;;;;;;10353124;28;20212;-85
2023/03/09 06:44:15;;;;;;;8.10;5.50;;;9.00;94.80;;;;;;10353714;28;20386;-84
2023/03/09 06:49:20;;;;;;;7.83;5.30;;;7.50;99.10;;;;;;10352770;28;20275;-85
2023/03/09 06:54:27;;;;;;;10.83;7.33;;;8.10;97.10;;;;;;10351949;28;20291;-85
2023/03/09 06:59:41;;;;;;;10.53;7.07;;;7.40;94.60;;;;;;10354807;28;20286;-84
2023/03/09 07:04:45;;;;;;;8.53;7.10;;;7.90;98.10;;;;;;10369416;28;20252;-84
2023/03/09 07:09:48;;;;;;;10.73;7.83;;;7.80;98.10;;;;;;10352148;28;20271;-85
2023/03/09 07:14:50;;;;;;;12.63;10.30;;;6.90;99.20;;;;;;10352717;28;20260;-85
2023/03/09 07:19:53;;;;;;;8.87;5.47;;;7.30;96.70;;;;;;10369771;28;20305;-85
2023/03/09 07:24:56;;;;;;;9.53;7.27;;;8.10;99.90;;;;;;10367861;28;20245;-85
2023/03/09 07:29:58;;;;;;;8.70;6.70;;;7.70;99.90;;;;;;10362255;28;20634;-85
2023/03/09 07:35:01;;;;;;;9.47;7.23;;;7.60;99.90;;;;;;10368827;28;20268;-85
2023/03/09 07:40:04;;;;;;;10.37;7.57;;;8.40;95.70;;;;;;10368594;28;20633;-85
2023/03/09 07:45:07;;;;;;;9.33;6.47;;;7.90;99.10;;;;;;10367563;28;20247;-85
2023/03/09 07:50:10;;;;;;;9.93;6.13;;;8.10;99.90;;;;;;10368627;28;20302;-85
2023/03/09 07:55:13;;;;;;;7.10;5.10;;;8.10;99.90;;;;;;10368797;28;20314;-85
2023/03/09 08:00:20;;;;;;;12.43;9.07;;;8.30;99.90;;;;;;10334393;28;20300;-85
2023/03/09 08:05:23;;;;;;;13.97;10.90;;;7.50;99.90;;;;;;10367114;28;20244;-84
2023/03/09 08:10:25;;;;;;;8.43;7.20;;;8.00;94.60;;;;;;10366969;28;20322;-85
2023/03/09 08:15:28;;;;;;;8.17;6.20;;;8.40;99.90;;;;;;10367667;28;20295;-85
2023/03/09 08:20:31;;;;;;;7.77;6.33;;;8.50;99.70;;;;;;10367470;28;20316;-85
2023/03/09 08:25:34;;;;;;;9.37;7.87;;;8.20;99.90;;;;;;10366219;28;20669;-85
2023/03/09 08:30:38;;;;;;;10.70;8.47;;;8.50;99.90;;;;;;10349493;28;20789;-85
2023/03/09 08:35:41;;;;;;;10.57;7.00;;;7.50;99.90;;;;;;10366824;28;20240;-84
2023/03/09 08:40:44;;;;;;;15.53;11.33;;;7.50;99.90;;;;;;10366987;28;20263;-85
2023/03/09 08:45:47;;;;;;;8.33;7.13;;;7.60;98.70;;;;;;10366928;28;20295;-85
2023/03/09 08:50:50;;;;;;;13.20;10.77;;;7.80;99.90;;;;;;10366497;28;20663;-85
2023/03/09 08:55:52;;;;;;;8.30;6.23;;;7.80;99.90;;;;;;10348921;28;20702;-85
2023/03/09 09:00:55;;;;;;;7.77;5.17;;;8.40;99.90;;;;;;10366677;28;20250;-84
2023/03/09 09:06:07;;;;;;;11.33;8.00;;;8.30;99.90;;;;;;10366169;28;20239;-84
2023/03/09 09:11:15;;;;;;;13.90;9.70;;;8.70;98.40;;;;;;10362514;28;20641;-84
2023/03/09 09:16:18;;;;;;;8.23;6.90;;;7.90;98.30;;;;;;10371700;28;20206;-85
2023/03/09 09:21:20;;;;;;;13.43;9.57;;;8.40;99.90;;;;;;10356080;28;20895;-85
2023/03/09 09:26:23;;;;;;;16.37;12.30;;;8.40;99.60;;;;;;10374059;28;20221;-85
2023/03/09 09:31:26;;;;;;;11.60;8.53;;;7.60;98.40;;;;;;10373775;28;20328;-85
2023/03/09 09:36:35;;;;;;;9.23;6.73;;;7.10;99.90;;;;;;10355416;28;20242;-85
2023/03/09 09:41:52;;;;;;;8.17;6.63;;;8.20;99.90;;;;;;10355957;28;20618;-85
2023/03/09 09:46:58;;;;;;;14.67;8.93;;;7.80;99.90;;;;;;10373743;28;20247;-85
2023/03/09 09:52:26;;;;;;;4.47;3.87;;;7.40;99.90;;;;;;10372718;28;20298;-85
2023/03/09 09:57:53;;;;;;;8.37;6.60;;;8.40;99.90;;;;;;10373207;28;20236;-85
2023/03/09 10:02:58;;;;;;;9.20;5.93;;;7.80;99.90;;;;;;10372803;28;20240;-85
2023/03/09 10:08:27;;;;;;;12.00;9.00;;;7.40;99.90;;;;;;10372689;28;20614;-84
2023/03/09 10:13:46;;;;;;;12.47;9.53;;;7.70;99.70;;;;;;10371793;28;20264;-84
2023/03/09 10:19:02;;;;;;;12.23;10.27;;;8.00;99.90;;;;;;10371485;28;20244;-85
2023/03/09 10:24:21;;;;;;;14.67;11.20;;;8.60;95.90;;;;;;10368808;28;20632;-84
2023/03/09 10:30:04;;;;;;;6.50;4.47;;;8.00;99.70;;;;;;10369611;28;20279;-84
2023/03/09 10:35:31;;;;;;;17.77;13.30;;;8.60;99.90;;;;;;10322315;28;20268;-84
2023/03/09 10:40:42;;;;;;;10.03;8.07;;;8.10;96.60;;;;;;10371319;28;20244;-84
2023/03/09 10:45:45;;;;;;;10.87;8.53;;;8.20;99.90;;;;;;10370689;28;20621;-84
2023/03/09 10:51:00;;;;;;;14.10;10.80;;;7.30;97.40;;;;;;10370035;28;20297;-84
2023/03/09 10:56:23;;;;;;;22.20;13.83;;;7.00;99.90;;;;;;10370969;28;20245;-84
2023/03/09 11:01:27;;;;;;;12.83;9.57;;;7.90;99.30;;;;;;10370498;28;20298;-85
2023/03/09 11:06:37;;;;;;;9.37;6.07;;;8.10;99.90;;;;;;10369012;28;20694;-85
2023/03/09 11:11:41;;;;;;;6.53;5.13;;;8.50;99.90;;;;;;10369314;28;20275;-84
2023/03/09 11:16:53;;;;;;;7.47;6.57;;;9.10;99.90;;;;;;10369892;28;20292;-85
2023/03/09 11:21:55;;;;;;;9.13;6.07;;;9.50;99.30;;;;;;10369706;28;20247;-85
2023/03/09 11:27:10;;;;;;;4.67;4.00;;;8.10;99.90;;;;;;10370236;28;20249;-85
2023/03/09 11:32:13;;;;;;;9.53;6.13;;;8.20;99.90;;;;;;10369774;28;20294;-85
2023/03/09 11:37:38;;;;;;;6.33;5.13;;;8.10;99.90;;;;;;10368622;28;20643;-85
2023/03/09 11:43:18;;;;;;;10.50;6.80;;;8.50;99.90;;;;;;10369099;28;20306;-85
2023/03/09 11:48:29;;;;;;;6.87;5.57;;;7.90;99.90;;;;;;10368247;28;20690;-84
2023/03/09 11:53:40;;;;;;;5.73;4.90;;;7.40;99.90;;;;;;10351718;28;20628;-84
2023/03/09 11:58:48;;;;;;;9.47;7.07;;;8.10;99.90;;;;;;10368238;28;20294;-84
2023/03/09 12:04:03;;;;;;;9.40;7.73;;;8.50;98.40;;;;;;10350276;28;21073;-84
2023/03/09 12:09:23;;;;;;;8.33;7.00;;;8.10;86.40;;;;;;10350084;28;20698;-84
2023/03/09 12:14:45;;;;;;;6.30;4.50;;;7.20;99.90;;;;;;10349889;28;20267;-84
2023/03/09 12:19:51;;;;;;;6.77;5.40;;;7.70;99.90;;;;;;10350628;28;20235;-85
2023/03/09 12:25:06;;;;;;;9.37;7.13;;;8.10;99.90;;;;;;10367676;28;20316;-84
2023/03/09 12:30:20;;;;;;;13.27;9.10;;;7.80;99.80;;;;;;10367304;28;20657;-84
2023/03/09 12:35:23;;;;;;;11.67;9.10;;;6.30;95.30;;;;;;10348661;28;20287;-84
2023/03/09 12:40:26;;;;;;;6.30;5.70;;;6.70;95.80;;;;;;10366441;28;20303;-84
2023/03/09 12:45:30;;;;;;;4.83;4.23;;;7.50;99.90;;;;;;10367477;28;20244;-84
2023/03/09 12:50:41;;;;;;;8.00;5.53;;;8.10;99.90;;;;;;10365806;28;20773;-84
2023/03/09 12:55:49;;;;;;;9.20;5.90;;;8.10;99.90;;;;;;10366574;28;20323;-84
2023/03/09 13:00:55;;;;;;;7.03;4.80;;;8.00;99.90;;;;;;10366047;28;20240;-85
2023/03/09 13:06:18;;;;;;;7.30;4.90;;;7.60;99.90;;;;;;10358688;28;20231;-86
2023/03/09 13:11:24;;;;;;;6.20;5.03;;;8.20;99.90;;;;;;10336558;28;20247;-86
2023/03/09 13:16:46;;;;;;;7.63;6.20;;;9.20;99.90;;;;;;10366434;28;20676;-86
2023/03/09 13:22:00;;;;;;;11.80;6.63;;;8.80;99.90;;;;;;10363646;28;20689;-86
2023/03/09 13:27:08;;;;;;;7.43;5.37;;;9.40;99.90;;;;;;10362824;28;20647;-86
2023/03/09 13:32:30;;;;;;;7.23;5.47;;;8.90;99.90;;;;;;10365901;28;20660;-86
2023/03/09 13:37:37;;;;;;;8.93;6.13;;;8.30;99.90;;;;;;10347809;28;20665;-86
2023/03/09 13:42:44;;;;;;;8.83;6.33;;;7.70;99.90;;;;;;10365363;28;20266;-85
2023/03/09 13:47:53;;;;;;;10.33;6.63;;;7.40;99.90;;;;;;10365754;28;20300;-85
2023/03/09 13:53:19;;;;;;;12.03;8.17;;;7.90;99.90;;;;;;10364313;28;20813;-86
2023/03/09 13:58:24;;;;;;;10.00;6.73;;;8.10;99.90;;;;;;10347071;28;20687;-85
2023/03/09 14:03:31;;;;;;;9.27;6.30;;;7.70;99.90;;;;;;10370779;28;20295;-86
2023/03/09 14:08:48;;;;;;;12.37;8.17;;;8.30;99.90;;;;;;10375201;28;20210;-85
2023/03/09 14:13:59;;;;;;;8.10;6.47;;;8.30;99.90;;;;;;10374592;28;20318;-85
2023/03/09 14:19:04;;;;;;;7.53;6.23;;;8.10;99.90;;;;;;10373541;28;20250;-85
2023/03/09 14:24:28;;;;;;;9.57;7.80;;;8.80;99.90;;;;;;10373161;28;20206;-86
2023/03/09 14:29:32;;;;;;;8.27;6.17;;;9.20;99.90;;;;;;10326553;28;20301;-86
2023/03/09 14:34:35;;;;;;;7.37;6.67;;;8.50;99.90;;;;;;10371178;28;20638;-86
2023/03/09 14:39:38;;;;;;;9.07;6.97;;;8.70;99.90;;;;;;10351950;28;20619;-86
2023/03/09 14:44:45;;;;;;;10.63;7.27;;;8.20;99.90;;;;;;10320191;28;20213;-87
2023/03/09 14:49:50;;;;;;;9.77;7.40;;;8.10;99.90;;;;;;10371805;28;20244;-86
2023/03/09 14:54:52;;;;;;;7.83;5.53;;;8.60;99.90;;;;;;10352811;28;20265;-86
2023/03/09 14:59:55;;;;;;;8.93;6.93;;;8.30;99.90;;;;;;10370250;28;20294;-86
2023/03/09 15:04:57;;;;;;;17.50;6.43;;;8.10;99.90;;;;;;10368334;28;20644;-86
2023/03/09 15:10:00;;;;;;;25.17;15.90;;;8.20;99.90;;;;;;10368877;28;20263;-86
2023/03/09 15:15:08;;;;;;;7.83;6.40;;;7.00;99.90;;;;;;10370379;28;20306;-86
2023/03/09 15:20:16;;;;;;;7.33;6.30;;;7.80;99.90;;;;;;10350082;28;20627;-86
2023/03/09 15:25:21;;;;;;;10.07;6.83;;;7.80;99.90;;;;;;10367216;28;20676;-86
2023/03/09 15:30:24;;;;;;;12.00;8.67;;;7.70;99.90;;;;;;10367169;28;20317;-86
2023/03/09 15:35:27;;;;;;;8.77;6.23;;;8.60;99.90;;;;;;10368753;28;20301;-86
2023/03/09 15:40:29;;;;;;;7.03;5.57;;;8.20;99.90;;;;;;10367904;28;20262;-86
2023/03/09 15:45:32;;;;;;;7.97;6.40;;;7.60;99.90;;;;;;10349766;28;20685;-86
2023/03/09 15:50:38;;;;;;;7.17;5.57;;;7.00;99.90;;;;;;10350253;28;20334;-86
2023/03/09 15:55:41;;;;;;;8.13;6.60;;;6.40;99.90;;;;;;10366732;28;20265;-86
2023/03/09 16:00:46;;;;;;;6.87;5.60;;;6.60;99.90;;;;;;10368345;28;20251;-86
2023/03/09 16:05:49;;;;;;;8.13;5.90;;;7.50;99.90;;;;;;10365636;28;20303;-86
2023/03/09 16:10:51;;;;;;;6.73;5.70;;;8.30;99.90;;;;;;10361659;28;20762;-86
2023/03/09 16:15:54;;;;;;;7.37;5.83;;;8.10;99.90;;;;;;10346934;28;20311;-86
2023/03/09 16:21:01;;;;;;;6.40;4.57;;;8.90;99.90;;;;;;10364890;28;20245;-85
2023/03/09 16:26:03;;;;;;;5.60;5.03;;;8.50;99.90;;;;;;10366213;28;20306;-86
2023/03/09 16:31:06;;;;;;;6.93;6.23;;;8.60;99.90;;;;;;10367574;28;20273;-86
2023/03/09 16:36:09;;;;;;;7.13;5.33;;;8.70;99.90;;;;;;10347445;28;20259;-85
2023/03/09 16:41:13;;;;;;;6.97;5.50;;;8.70;99.90;;;;;;10339270;28;20812;-86
2023/03/09 16:46:18;;;;;;;8.20;6.80;;;8.80;99.90;;;;;;10365768;28;20290;-85
2023/03/09 16:51:21;;;;;;;12.67;8.57;;;8.60;99.90;;;;;;10363863;28;20298;-85
2023/03/09 16:56:23;;;;;;;10.50;6.90;;;8.90;99.90;;;;;;10366317;28;20670;-85
2023/03/09 17:01:26;;;;;;;9.00;7.10;;;8.20;99.90;;;;;;10366601;28;20623;-85
2023/03/09 17:06:29;;;;;;;14.47;9.83;;;7.60;99.90;;;;;;10349227;28;20251;-85
2023/03/09 17:11:33;;;;;;;9.10;6.50;;;7.40;99.90;;;;;;10348286;28;20623;-85
2023/03/09 17:16:37;;;;;;;8.03;6.17;;;7.70;99.90;;;;;;10364519;28;20274;-85
2023/03/09 17:21:39;;;;;;;12.80;9.43;;;8.10;99.90;;;;;;10348547;28;20272;-86
2023/03/09 17:26:42;;;;;;;12.43;8.50;;;7.90;99.90;;;;;;10364923;28;20741;-83
2023/03/09 17:31:45;;;;;;;17.17;10.20;;;8.40;99.90;;;;;;10366624;28;20235;-84
2023/03/09 17:36:47;;;;;;;13.67;7.93;;;8.40;99.90;;;;;;10353326;28;20311;-84
2023/03/09 17:41:50;;;;;;;14.13;10.17;;;7.80;99.90;;;;;;10374359;28;20237;-84
2023/03/09 17:46:54;;;;;;;12.67;8.67;;;7.10;97.00;;;;;;10374150;28;20298;-84
2023/03/09 17:51:56;;;;;;;11.00;8.07;;;6.60;99.90;;;;;;10373674;28;20253;-84
2023/03/09 17:57:00;;;;;;;38.53;22.30;;;7.10;99.90;;;;;;10355731;28;20650;-84
2023/03/09 18:02:05;;;;;;;101.30;51.80;;;6.90;99.90;;;;;;10373146;28;20237;-82
2023/03/09 18:07:09;;;;;;;43.10;23.43;;;6.60;99.90;;;;;;10372151;28;20276;-83
2023/03/09 18:12:20;;;;;;;49.27;34.00;;;8.20;99.90;;;;;;10372355;28;20243;-83
2023/03/09 18:17:23;;;;;;;21.70;14.07;;;7.60;99.80;;;;;;10354584;28;20265;-83
2023/03/09 18:22:25;;;;;;;46.50;30.37;;;6.30;99.90;;;;;;10371777;28;20653;-83
2023/03/09 18:27:28;;;;;;;20.50;14.30;;;6.70;99.90;;;;;;10354816;28;20256;-83
2023/03/09 18:32:31;;;;;;;23.57;14.90;;;6.10;99.90;;;;;;10353920;28;20249;-83
2023/03/09 18:37:34;;;;;;;28.13;18.27;;;5.70;99.90;;;;;;10353689;28;20715;-83
2023/03/09 18:42:36;;;;;;;25.67;16.27;;;5.50;99.90;;;;;;10370965;28;20938;-83
2023/03/09 18:47:39;;;;;;;26.37;15.90;;;5.80;99.90;;;;;;10370573;28;20244;-83
2023/03/09 18:52:41;;;;;;;24.63;17.93;;;5.70;99.90;;;;;;10371320;28;20264;-84
2023/03/09 18:57:44;;;;;;;38.73;22.10;;;5.60;99.90;;;;;;10353161;28;20263;-84
2023/03/09 19:02:47;;;;;;;19.03;13.80;;;5.80;99.90;;;;;;10371189;28;20737;-84
2023/03/09 19:07:49;;;;;;;20.37;11.77;;;6.00;99.90;;;;;;10353511;28;20939;-84
2023/03/09 19:12:52;;;;;;;31.77;19.40;;;6.70;99.90;;;;;;10370765;28;20275;-84
2023/03/09 19:17:54;;;;;;;25.57;17.53;;;6.60;99.90;;;;;;10349617;28;20727;-84
2023/03/09 19:22:57;;;;;;;25.27;12.17;;;7.10;97.40;;;;;;10350152;28;20306;-83
2023/03/09 19:27:59;;;;;;;30.37;16.20;;;6.50;99.90;;;;;;10351274;28;20767;-83
2023/03/09 19:33:02;;;;;;;23.43;14.87;;;6.50;99.90;;;;;;10367473;28;20294;-83
2023/03/09 19:38:06;;;;;;;24.23;11.97;;;6.40;97.00;;;;;;10351845;28;20795;-83
2023/03/09 19:43:08;;;;;;;25.23;13.93;;;6.60;99.90;;;;;;10352556;28;20236;-83
2023/03/09 19:48:11;;;;;;;20.47;13.13;;;6.40;99.70;;;;;;10350043;28;20248;-82
2023/03/09 19:53:13;;;;;;;18.23;10.87;;;6.50;92.60;;;;;;10366706;28;20271;-81
2023/03/09 19:58:16;;;;;;;13.73;9.43;;;5.90;99.90;;;;;;10366104;28;20244;-82
2023/03/09 20:03:18;;;;;;;21.63;12.07;;;6.00;99.90;;;;;;10365350;28;20235;-81
2023/03/09 20:08:21;;;;;;;20.33;10.23;;;6.30;99.90;;;;;;10346286;28;20240;-81
2023/03/09 20:13:25;;;;;;;16.87;11.20;;;6.90;99.90;;;;;;10363319;28;20302;-82
2023/03/09 20:18:28;;;;;;;18.83;10.30;;;6.50;99.90;;;;;;10364352;28;20661;-81
2023/03/09 20:23:30;;;;;;;16.73;10.03;;;7.20;99.90;;;;;;10363510;28;20251;-80
2023/03/09 20:28:34;;;;;;;17.63;9.77;;;7.30;99.90;;;;;;10345456;28;20708;-81
2023/03/09 20:33:37;;;;;;;17.57;10.07;;;7.70;99.90;;;;;;10306676;28;20665;-82
2023/03/09 20:38:40;;;;;;;13.23;9.53;;;7.60;99.90;;;;;;10324205;28;20307;-82
2023/03/09 20:43:43;;;;;;;16.07;12.13;;;7.60;99.90;;;;;;10344659;28;20296;-81
2023/03/09 20:48:49;;;;;;;18.60;11.50;;;7.40;99.90;;;;;;10346091;28;20305;-81
2023/03/09 20:53:53;;;;;;;24.53;12.67;;;8.00;99.90;;;;;;10364887;28;20730;-81
2023/03/09 20:58:57;;;;;;;14.70;8.87;;;7.80;99.90;;;;;;10013067;28;10000570;-81
2023/03/09 21:04:00;;;;;;;16.60;11.57;;;7.50;99.90;;;;;;10351313;28;20290;-80
2023/03/09 21:09:03;;;;;;;15.63;10.70;;;7.40;99.90;;;;;;10346411;28;20697;-81
2023/03/09 21:14:06;;;;;;;22.23;13.57;;;7.40;99.90;;;;;;10373035;28;20256;-81
2023/03/09 21:19:08;;;;;;;13.83;10.13;;;7.40;99.90;;;;;;10372621;28;20276;-83
2023/03/09 21:24:11;;;;;;;19.80;12.93;;;7.30;99.90;;;;;;10374815;28;20235;-80
2023/03/09 21:29:14;;;;;;;33.63;20.73;;;7.20;99.90;;;;;;10373823;28;20261;-81
2023/03/09 21:34:17;;;;;;;19.50;12.87;;;6.30;99.90;;;;;;10371878;28;20332;-81
2023/03/09 21:39:19;;;;;;;20.40;13.40;;;6.30;99.90;;;;;;10372667;28;20312;-81
2023/03/09 21:44:22;;;;;;;24.40;14.30;;;6.30;99.90;;;;;;10369269;28;20320;-82
2023/03/09 21:49:25;;;;;;;19.47;12.70;;;6.30;99.90;;;;;;10348134;28;20843;-81
2023/03/09 21:54:27;;;;;;;19.63;12.47;;;6.90;99.90;;;;;;10375981;28;20652;-82
2023/03/09 21:59:32;;;;;;;22.33;15.57;;;6.80;99.90;;;;;;10374908;28;20216;-81
2023/03/09 22:04:35;;;;;;;22.23;13.70;;;7.10;99.90;;;;;;10373800;28;20324;-81
2023/03/09 22:09:37;;;;;;;23.57;16.07;;;7.00;99.90;;;;;;10357807;28;20229;-82
2023/03/09 22:14:40;;;;;;;39.17;21.23;;;6.60;99.90;;;;;;10375652;28;20256;-82
2023/03/09 22:19:42;;;;;;;23.07;14.17;;;6.00;99.90;;;;;;10356702;28;20679;-82
2023/03/09 22:24:45;;;;;;;25.03;15.37;;;6.10;99.90;;;;;;10374628;28;20553;-82
2023/03/09 22:29:48;;;;;;;28.30;19.10;;;6.00;99.90;;;;;;10371312;28;20236;-83
2023/03/09 22:34:51;;;;;;;32.13;20.83;;;5.40;99.90;;;;;;10331781;28;20293;-82
2023/03/09 22:39:54;;;;;;;19.10;13.13;;;4.80;99.90;;;;;;10390390;28;20201;-83
2023/03/09 22:44:58;;;;;;;25.00;15.10;;;5.40;99.90;;;;;;10422170;28;20208;-83
2023/03/09 22:50:01;;;;;;;29.87;20.27;;;5.50;99.90;;;;;;10422476;28;20315;-83
2023/03/09 22:55:05;;;;;;;28.83;18.83;;;5.70;99.90;;;;;;10419211;28;20248;-81
2023/03/09 23:00:12;;;;;;;48.50;30.50;;;5.70;99.90;;;;;;10405035;28;20209;-82
2023/03/09 23:05:15;;;;;;;45.77;24.87;;;5.60;99.90;;;;;;10423788;28;20209;-82
2023/03/09 23:10:18;;;;;;;31.70;20.43;;;5.50;99.90;;;;;;10415913;28;20228;-83
2023/03/09 23:15:21;;;;;;;18.93;14.00;;;5.20;99.90;;;;;;10405882;28;20226;-83
2023/03/09 23:20:23;;;;;;;22.40;15.07;;;5.30;99.90;;;;;;10422597;28;20201;-83
2023/03/09 23:25:26;;;;;;;28.73;19.37;;;5.80;99.90;;;;;;10407636;28;20199;-81
2023/03/09 23:30:28;;;;;;;29.50;19.43;;;6.30;99.90;;;;;;10423100;28;20237;-82
2023/03/09 23:35:31;;;;;;;38.93;23.80;;;6.50;99.90;;;;;;10422898;28;20225;-84
2023/03/09 23:40:34;;;;;;;30.77;19.17;;;6.20;99.90;;;;;;10423912;28;20186;-83
2023/03/09 23:45:36;;;;;;;34.33;23.23;;;5.70;99.90;;;;;;10424099;28;20213;-83
2023/03/09 23:50:43;;;;;;;38.43;20.90;;;6.40;99.90;;;;;;10423710;28;20221;-83
2023/03/09 23:55:45;;;;;;;43.13;24.83;;;5.80;99.90;;;;;;10423239;28;20248;-82
